createdAt,value
2022-10-14T00:02:07.071Z,11.74
2022-10-14T00:04:33.517Z,11.72
2022-10-14T00:06:59.920Z,11.75
2022-10-14T00:09:26.282Z,11.75
2022-10-14T00:11:52.599Z,11.75
2022-10-14T00:14:20.476Z,11.75
2022-10-14T00:16:49.300Z,11.68
2022-10-14T00:19:15.839Z,11.61
2022-10-14T00:21:46.329Z,11.58
2022-10-14T00:24:15.893Z,11.58
2022-10-14T00:26:42.873Z,11.55
2022-10-14T00:29:13.378Z,11.43
2022-10-14T00:31:39.832Z,11.39
2022-10-14T00:34:06.229Z,11.35
2022-10-14T00:36:32.544Z,11.36
2022-10-14T00:38:58.968Z,11.36
2022-10-14T00:41:28.497Z,11.41
2022-10-14T00:43:57.657Z,11.49
2022-10-14T00:46:25.738Z,11.52
2022-10-14T00:48:52.500Z,11.55
2022-10-14T00:51:19.773Z,11.52
2022-10-14T00:53:46.617Z,11.51
2022-10-14T00:56:15.962Z,11.52
2022-10-14T00:58:44.225Z,11.55
2022-10-14T01:01:10.639Z,11.55
2022-10-14T01:03:37.046Z,11.57
2022-10-14T01:06:22.627Z,11.56
2022-10-14T01:09:25.286Z,11.55
2022-10-14T01:12:23.400Z,11.55
2022-10-14T01:14:59.746Z,11.47
2022-10-14T01:18:03.297Z,11.39
2022-10-14T01:20:38.789Z,11.33
2022-10-14T01:23:21.129Z,11.30
2022-10-14T01:25:48.706Z,11.23
2022-10-14T01:29:06.286Z,11.19
2022-10-14T01:31:35.492Z,11.16
2022-10-14T01:34:10.036Z,11.17
2022-10-14T01:36:56.555Z,11.16
2022-10-14T01:39:27.537Z,11.13
2022-10-14T01:42:01.417Z,11.12
2022-10-14T01:44:30.311Z,11.15
2022-10-14T01:47:00.404Z,11.17
2022-10-14T01:49:39.311Z,11.22
2022-10-14T01:52:12.207Z,11.23
2022-10-14T01:54:41.700Z,11.30
2022-10-14T01:57:13.984Z,11.32
2022-10-14T01:59:42.478Z,11.40
2022-10-14T02:02:08.854Z,11.40
2022-10-14T02:04:35.262Z,11.42
2022-10-14T02:07:11.322Z,11.44
2022-10-14T02:09:56.242Z,11.48
2022-10-14T02:12:44.694Z,11.51
2022-10-14T02:15:31.690Z,11.54
2022-10-14T02:18:12.251Z,11.60
2022-10-14T02:20:53.123Z,11.54
2022-10-14T02:23:24.165Z,11.63
2022-10-14T02:25:51.342Z,11.63
2022-10-14T02:28:25.836Z,11.64
2022-10-14T02:30:57.787Z,11.57
2022-10-14T02:33:31.536Z,11.54
2022-10-14T02:35:58.026Z,11.55
2022-10-14T02:38:25.800Z,11.52
2022-10-14T02:40:52.442Z,11.56
2022-10-14T02:43:18.822Z,11.58
2022-10-14T02:45:45.175Z,11.57
2022-10-14T02:48:14.728Z,11.54
2022-10-14T02:50:42.278Z,11.53
2022-10-14T02:53:12.801Z,11.51
2022-10-14T02:55:39.323Z,11.51
2022-10-14T02:58:05.640Z,11.51
2022-10-14T03:00:31.985Z,11.56
2022-10-14T03:02:58.375Z,11.61
2022-10-14T03:05:24.775Z,11.62
2022-10-14T03:07:51.267Z,11.64
2022-10-14T03:10:18.089Z,11.68
2022-10-14T03:12:44.577Z,11.70
2022-10-14T03:15:11.387Z,11.71
2022-10-14T03:17:37.798Z,11.77
2022-10-14T03:20:05.327Z,11.81
2022-10-14T03:22:31.826Z,11.83
2022-10-14T03:24:58.145Z,11.84
2022-10-14T03:27:25.151Z,11.81
2022-10-14T03:29:51.519Z,11.81
2022-10-14T03:32:17.834Z,11.83
2022-10-14T03:34:45.288Z,11.84
2022-10-14T03:37:11.615Z,11.82
2022-10-14T03:39:37.948Z,11.81
2022-10-14T03:42:04.486Z,11.81
2022-10-14T03:44:30.807Z,11.83
2022-10-14T03:46:57.241Z,11.80
2022-10-14T03:49:23.690Z,11.84
2022-10-14T03:51:50.044Z,11.87
2022-10-14T03:54:16.464Z,11.88
2022-10-14T03:56:42.883Z,11.87
2022-10-14T03:59:09.209Z,11.86
2022-10-14T04:01:35.560Z,11.85
2022-10-14T04:04:02.052Z,11.86
2022-10-14T04:06:28.448Z,11.85
2022-10-14T04:08:54.782Z,11.87
2022-10-14T04:11:21.145Z,11.89
2022-10-14T04:13:47.514Z,11.90
2022-10-14T04:16:13.825Z,11.90
2022-10-14T04:18:43.044Z,11.92
2022-10-14T04:21:12.224Z,11.89
2022-10-14T04:23:41.061Z,11.86
2022-10-14T04:26:09.287Z,11.87
2022-10-14T04:28:36.708Z,11.86
2022-10-14T04:31:03.956Z,11.86
2022-10-14T04:33:30.465Z,11.88
2022-10-14T04:36:01.139Z,11.88
2022-10-14T04:38:28.737Z,11.93
2022-10-14T04:40:55.401Z,12.00
2022-10-14T04:43:21.825Z,12.03
2022-10-14T04:45:48.595Z,12.06
2022-10-14T04:48:15.887Z,12.08
2022-10-14T04:50:42.480Z,12.09
2022-10-14T04:53:13.298Z,12.12
2022-10-14T04:55:43.194Z,12.13
2022-10-14T04:58:09.513Z,12.17
2022-10-14T05:00:35.812Z,12.18
2022-10-14T05:03:02.128Z,12.21
2022-10-14T05:05:28.677Z,12.21
2022-10-14T05:07:55.089Z,12.23
2022-10-14T05:10:21.799Z,12.20
2022-10-14T05:12:48.939Z,12.20
2022-10-14T05:15:18.523Z,12.20
2022-10-14T05:17:44.979Z,12.21
2022-10-14T05:20:12.243Z,12.22
2022-10-14T05:22:39.045Z,12.22
2022-10-14T05:25:06.006Z,12.22
2022-10-14T05:27:32.351Z,12.24
2022-10-14T05:29:58.690Z,12.24
2022-10-14T05:32:25.042Z,12.23
2022-10-14T05:34:51.429Z,12.25
2022-10-14T05:37:17.825Z,12.25
2022-10-14T05:39:44.146Z,12.27
2022-10-14T05:42:10.485Z,12.28
2022-10-14T05:44:36.952Z,12.34
2022-10-14T05:47:03.296Z,12.38
2022-10-14T05:49:29.679Z,12.43
2022-10-14T05:51:55.993Z,12.47
2022-10-14T05:54:24.747Z,12.53
2022-10-14T05:56:51.078Z,12.53
2022-10-14T05:59:17.484Z,12.57
2022-10-14T06:01:44.134Z,12.61
2022-10-14T06:04:17.660Z,12.66
2022-10-14T06:06:44.126Z,12.70
2022-10-14T06:09:11.629Z,12.73
2022-10-14T06:11:38.409Z,12.77
2022-10-14T06:14:04.854Z,12.80
2022-10-14T06:16:31.314Z,12.85
2022-10-14T06:18:57.861Z,12.87
2022-10-14T06:21:24.388Z,12.88
2022-10-14T06:23:50.776Z,12.93
2022-10-14T06:26:17.182Z,12.94
2022-10-14T06:28:43.776Z,12.96
2022-10-14T06:31:10.214Z,12.98
2022-10-14T06:33:36.623Z,13.00
2022-10-14T06:36:04.512Z,13.02
2022-10-14T06:38:31.385Z,13.05
2022-10-14T06:40:57.865Z,13.06
2022-10-14T06:43:24.334Z,13.06
2022-10-14T06:45:50.905Z,13.11
2022-10-14T06:48:17.331Z,13.13
2022-10-14T06:50:44.021Z,13.13
2022-10-14T06:53:10.579Z,13.13
2022-10-14T06:55:36.951Z,13.14
2022-10-14T06:58:03.340Z,13.17
2022-10-14T07:00:29.770Z,13.17
2022-10-14T07:02:58.584Z,13.18
2022-10-14T07:05:25.392Z,13.19
2022-10-14T07:07:51.801Z,13.24
2022-10-14T07:10:18.184Z,13.28
2022-10-14T07:12:44.606Z,13.28
2022-10-14T07:15:11.016Z,13.27
2022-10-14T07:17:38.213Z,13.28
2022-10-14T07:20:05.079Z,13.28
2022-10-14T07:22:33.990Z,13.30
2022-10-14T07:25:04.753Z,13.30
2022-10-14T07:27:31.462Z,13.29
2022-10-14T07:29:58.230Z,13.33
2022-10-14T07:32:24.565Z,13.32
2022-10-14T07:34:51.768Z,13.35
2022-10-14T07:37:18.602Z,13.35
2022-10-14T07:39:45.008Z,13.38
2022-10-14T07:42:11.581Z,13.38
2022-10-14T07:44:41.153Z,13.43
2022-10-14T07:47:07.594Z,13.45
2022-10-14T07:49:34.428Z,13.49
2022-10-14T07:52:00.765Z,13.49
2022-10-14T07:54:29.317Z,13.50
2022-10-14T07:56:57.833Z,13.48
2022-10-14T07:59:24.909Z,13.53
2022-10-14T08:01:53.135Z,13.54
2022-10-14T08:04:19.936Z,13.55
2022-10-14T08:06:50.360Z,13.58
2022-10-14T08:09:18.401Z,13.61
2022-10-14T08:11:45.730Z,13.63
2022-10-14T08:14:12.886Z,13.69
2022-10-14T08:16:39.707Z,13.75
2022-10-14T08:19:14.606Z,13.81
2022-10-14T08:21:42.547Z,13.83
2022-10-14T08:24:09.619Z,13.88
2022-10-14T08:26:57.955Z,13.89
2022-10-14T08:29:24.768Z,13.92
2022-10-14T08:31:52.411Z,13.94
2022-10-14T08:34:21.657Z,14.01
2022-10-14T08:36:48.945Z,14.05
2022-10-14T08:39:20.471Z,14.08
2022-10-14T08:42:16.038Z,14.13
2022-10-14T08:45:01.229Z,14.16
2022-10-14T08:47:43.089Z,14.16
2022-10-14T08:50:09.592Z,14.17
2022-10-14T08:52:42.215Z,14.18
2022-10-14T08:55:33.711Z,14.19
2022-10-14T08:58:10.393Z,14.20
2022-10-14T09:00:41.068Z,14.20
2022-10-14T09:03:16.594Z,14.21
2022-10-14T09:05:43.590Z,14.24
2022-10-14T09:08:19.406Z,14.29
2022-10-14T09:10:45.794Z,14.33
2022-10-14T09:13:28.841Z,14.36
2022-10-14T09:16:01.940Z,14.38
2022-10-14T09:18:28.207Z,14.41
2022-10-14T09:20:56.190Z,14.45
2022-10-14T09:23:24.604Z,14.48
2022-10-14T09:25:58.995Z,14.50
2022-10-14T09:28:38.550Z,14.54
2022-10-14T09:31:07.833Z,14.58
2022-10-14T09:33:42.066Z,14.60
2022-10-14T09:36:16.879Z,14.64
2022-10-14T09:38:46.147Z,14.66
2022-10-14T09:41:15.790Z,14.69
2022-10-14T09:44:22.167Z,14.73
2022-10-14T09:46:56.756Z,14.76
2022-10-14T09:49:33.732Z,14.82
2022-10-14T09:52:02.644Z,14.88
2022-10-14T09:54:31.566Z,14.89
2022-10-14T09:57:02.217Z,14.97
2022-10-14T09:59:29.332Z,15.01
2022-10-14T10:01:59.215Z,15.05
2022-10-14T10:04:28.715Z,15.10
2022-10-14T10:06:55.456Z,15.14
2022-10-14T10:09:22.343Z,15.20
2022-10-14T10:11:49.144Z,15.25
2022-10-14T10:14:32.299Z,15.31
2022-10-14T10:17:07.813Z,15.36
2022-10-14T10:19:37.023Z,15.41
2022-10-14T10:22:24.590Z,15.41
2022-10-14T10:25:01.029Z,15.42
2022-10-14T10:27:27.392Z,15.45
2022-10-14T10:29:56.165Z,15.50
2022-10-14T10:32:42.500Z,15.53
2022-10-14T10:35:32.898Z,15.53
2022-10-14T10:38:23.089Z,15.54
2022-10-14T10:41:07.874Z,15.58
2022-10-14T10:44:12.810Z,15.56
2022-10-14T10:47:18.078Z,15.57
2022-10-14T10:50:11.395Z,15.57
2022-10-14T10:52:41.206Z,15.58
2022-10-14T10:55:32.143Z,15.59
2022-10-14T10:58:18.101Z,15.60
2022-10-14T11:01:03.489Z,15.65
2022-10-14T11:03:55.186Z,15.66
2022-10-14T11:06:49.916Z,15.65
2022-10-14T11:09:53.032Z,15.68
2022-10-14T11:12:35.765Z,15.70
2022-10-14T11:15:45.647Z,15.71
2022-10-14T11:18:24.965Z,15.72
2022-10-14T11:21:23.018Z,15.74
2022-10-14T11:24:18.467Z,15.78
2022-10-14T11:26:53.955Z,15.76
2022-10-14T11:29:23.396Z,15.77
2022-10-14T11:31:56.262Z,15.76
2022-10-14T11:34:31.622Z,15.79
2022-10-14T11:37:29.191Z,15.81
2022-10-14T11:40:21.093Z,15.78
2022-10-14T11:43:03.386Z,15.78
2022-10-14T11:45:54.774Z,15.79
2022-10-14T11:48:52.445Z,15.80
2022-10-14T11:51:24.688Z,15.79
2022-10-14T11:54:21.811Z,15.78
2022-10-14T11:56:56.592Z,15.75
2022-10-14T12:00:02.627Z,15.78
2022-10-14T12:02:40.864Z,15.76
2022-10-14T12:05:07.310Z,15.79
2022-10-14T12:07:40.748Z,15.81
2022-10-14T12:10:20.576Z,15.80
2022-10-14T12:12:47.122Z,15.80
2022-10-14T12:15:18.463Z,15.81
2022-10-14T12:17:52.250Z,15.83
2022-10-14T12:20:40.357Z,15.87
2022-10-14T12:23:11.332Z,15.88
2022-10-14T12:25:48.637Z,15.88
2022-10-14T12:28:19.424Z,15.91
2022-10-14T12:30:47.506Z,15.94
2022-10-14T12:33:22.687Z,15.97
2022-10-14T12:36:30.754Z,16.03
2022-10-14T12:39:18.911Z,16.06
2022-10-14T12:41:55.341Z,16.07
2022-10-14T12:44:44.356Z,16.09
2022-10-14T12:47:32.080Z,16.09
2022-10-14T12:50:04.265Z,16.09
2022-10-14T12:52:33.910Z,16.08
2022-10-14T12:55:08.010Z,16.04
2022-10-14T12:57:40.065Z,16.08
2022-10-14T13:00:30.557Z,16.09
2022-10-14T13:03:00.820Z,16.07
2022-10-14T13:05:44.801Z,16.12
2022-10-14T13:08:19.882Z,16.12
2022-10-14T13:10:55.223Z,16.16
2022-10-14T13:13:48.912Z,16.19
2022-10-14T13:16:15.437Z,16.24
2022-10-14T13:18:44.481Z,16.29
2022-10-14T13:21:31.021Z,16.33
2022-10-14T13:24:01.249Z,16.35
2022-10-14T13:26:40.912Z,16.40
2022-10-14T13:29:13.486Z,16.41
2022-10-14T13:31:52.060Z,16.39
2022-10-14T13:34:49.608Z,16.40
2022-10-14T13:37:31.570Z,16.37
2022-10-14T13:39:58.356Z,16.37
2022-10-14T13:42:28.880Z,16.34
2022-10-14T13:45:03.973Z,16.31
2022-10-14T13:47:31.038Z,16.30
2022-10-14T13:49:57.662Z,16.28
2022-10-14T13:52:26.071Z,16.27
2022-10-14T13:55:25.821Z,16.29
2022-10-14T13:58:13.620Z,16.33
2022-10-14T14:00:58.227Z,16.35
2022-10-14T14:03:36.098Z,16.37
2022-10-14T14:06:09.698Z,16.44
2022-10-14T14:08:48.283Z,16.49
2022-10-14T14:11:31.321Z,16.52
2022-10-14T14:14:02.505Z,16.56
2022-10-14T14:16:30.691Z,16.57
2022-10-14T14:19:07.676Z,16.60
2022-10-14T14:21:35.222Z,16.60
2022-10-14T14:24:02.203Z,16.60
2022-10-14T14:26:36.931Z,16.59
2022-10-14T14:29:05.684Z,16.63
2022-10-14T14:32:01.379Z,16.66
2022-10-14T14:34:22.290Z,16.66
2022-10-14T14:36:55.727Z,16.74
2022-10-14T14:39:29.766Z,16.79
2022-10-14T14:41:59.271Z,16.84
2022-10-14T14:44:28.789Z,16.88
2022-10-14T14:46:59.372Z,16.94
2022-10-14T14:49:30.614Z,16.98
2022-10-14T14:51:58.369Z,17.04
2022-10-14T14:54:25.816Z,17.09
2022-10-14T14:57:02.626Z,17.16
2022-10-14T14:59:38.443Z,17.18
2022-10-14T15:02:14.175Z,17.19
2022-10-14T15:04:40.821Z,17.17
2022-10-14T15:07:21.092Z,17.13
2022-10-14T15:09:54.185Z,17.12
2022-10-14T15:12:24.085Z,17.09
2022-10-14T15:15:26.581Z,17.10
2022-10-14T15:18:12.631Z,17.08
2022-10-14T15:20:39.554Z,17.07
2022-10-14T15:23:55.942Z,17.07
2022-10-14T15:26:34.157Z,17.02
2022-10-14T15:29:10.414Z,17.01
2022-10-14T15:31:38.732Z,16.99
2022-10-14T15:34:05.973Z,16.94
2022-10-14T15:36:34.221Z,16.96
2022-10-14T15:39:02.274Z,16.95
2022-10-14T15:41:29.389Z,16.93
2022-10-14T15:43:55.875Z,16.91
2022-10-14T15:46:41.480Z,16.90
2022-10-14T15:49:28.000Z,16.86
2022-10-14T15:51:54.455Z,16.83
2022-10-14T15:54:20.807Z,16.78
2022-10-14T15:56:48.184Z,16.71
2022-10-14T15:59:17.745Z,16.63
2022-10-14T16:01:45.192Z,16.67
2022-10-14T16:04:19.182Z,16.65
2022-10-14T16:06:46.255Z,16.58
2022-10-14T16:09:13.113Z,16.55
2022-10-14T16:11:39.530Z,16.51
2022-10-14T16:14:08.057Z,16.49
2022-10-14T16:16:37.656Z,16.46
2022-10-14T16:19:04.761Z,16.44
2022-10-14T16:21:31.175Z,16.41
2022-10-14T16:24:00.901Z,16.39
2022-10-14T16:26:27.489Z,16.34
2022-10-14T16:28:53.948Z,16.30
2022-10-14T16:31:21.428Z,16.28
2022-10-14T16:33:51.703Z,16.27
2022-10-14T16:36:18.246Z,16.24
2022-10-14T16:38:44.572Z,16.20
2022-10-14T16:41:11.709Z,16.18
2022-10-14T16:43:38.527Z,16.14
2022-10-14T16:46:06.839Z,16.10
2022-10-14T16:48:35.405Z,16.07
2022-10-14T16:51:02.581Z,16.03
2022-10-14T16:53:40.606Z,16.00
2022-10-14T16:56:34.802Z,15.96
2022-10-14T16:59:03.712Z,15.91
2022-10-14T17:01:30.705Z,15.88
2022-10-14T17:03:57.759Z,15.85
2022-10-14T17:06:25.215Z,15.86
2022-10-14T17:08:52.280Z,15.85
2022-10-14T17:11:19.033Z,15.85
2022-10-14T17:13:45.776Z,15.85
2022-10-14T17:16:12.325Z,15.82
2022-10-14T17:18:38.946Z,15.79
2022-10-14T17:21:07.536Z,15.78
2022-10-14T17:23:38.387Z,15.79
2022-10-14T17:26:05.749Z,15.75
2022-10-14T17:28:32.844Z,15.74
2022-10-14T17:31:01.313Z,15.73
2022-10-14T17:33:28.017Z,15.70
2022-10-14T17:35:58.717Z,15.67
2022-10-14T17:38:26.567Z,15.66
2022-10-14T17:40:53.368Z,15.65
2022-10-14T17:43:20.405Z,15.60
2022-10-14T17:45:46.726Z,15.59
2022-10-14T17:48:13.105Z,15.58
2022-10-14T17:50:39.467Z,15.54
2022-10-14T17:53:05.925Z,15.51
2022-10-14T17:55:35.642Z,15.50
2022-10-14T17:58:01.993Z,15.49
2022-10-14T18:00:28.609Z,15.45
2022-10-14T18:02:54.983Z,15.42
2022-10-14T18:05:21.358Z,15.39
2022-10-14T18:07:47.714Z,15.40
2022-10-14T18:10:14.293Z,15.38
2022-10-14T18:12:41.606Z,15.36
2022-10-14T18:15:08.336Z,15.37
2022-10-14T18:17:35.278Z,15.36
2022-10-14T18:20:05.584Z,15.33
2022-10-14T18:22:35.094Z,15.32
2022-10-14T18:25:01.901Z,15.31
2022-10-14T18:27:28.224Z,15.31
2022-10-14T18:29:54.621Z,15.31
2022-10-14T18:32:21.252Z,15.32
2022-10-14T18:34:48.034Z,15.32
2022-10-14T18:37:17.435Z,15.30
2022-10-14T18:39:44.605Z,15.26
2022-10-14T18:42:10.931Z,15.26
2022-10-14T18:44:37.242Z,15.29
2022-10-14T18:47:03.652Z,15.29
2022-10-14T18:49:30.013Z,15.29
2022-10-14T18:51:56.465Z,15.29
2022-10-14T18:54:24.689Z,15.31
2022-10-14T18:56:51.578Z,15.30
2022-10-14T18:59:23.111Z,15.28
2022-10-14T19:01:52.778Z,15.27
2022-10-14T19:04:21.329Z,15.26
2022-10-14T19:06:50.937Z,15.25
2022-10-14T19:09:24.383Z,15.25
2022-10-14T19:11:51.926Z,15.25
2022-10-14T19:14:18.394Z,15.23
2022-10-14T19:16:47.333Z,15.22
2022-10-14T19:19:18.218Z,15.21
2022-10-14T19:21:46.062Z,15.21
2022-10-14T19:24:13.281Z,15.19
2022-10-14T19:26:43.341Z,15.17
2022-10-14T19:29:12.385Z,15.13
2022-10-14T19:31:40.190Z,15.07
2022-10-14T19:34:12.864Z,15.07
2022-10-14T19:36:40.658Z,15.03
2022-10-14T19:39:09.343Z,15.02
2022-10-14T19:41:42.582Z,15.00
2022-10-14T19:44:09.519Z,14.93
2022-10-14T19:46:35.865Z,14.89
2022-10-14T19:49:04.091Z,14.89
2022-10-14T19:51:32.023Z,14.86
2022-10-14T19:53:59.302Z,14.88
2022-10-14T19:56:26.884Z,14.88
2022-10-14T19:58:56.081Z,14.88
2022-10-14T20:01:24.829Z,14.89
2022-10-14T20:03:51.941Z,14.88
2022-10-14T20:06:19.613Z,14.91
2022-10-14T20:08:46.086Z,14.93
2022-10-14T20:11:15.467Z,14.88
2022-10-14T20:13:43.424Z,14.84
2022-10-14T20:16:10.742Z,14.82
2022-10-14T20:18:37.302Z,14.80
2022-10-14T20:21:06.149Z,14.80
2022-10-14T20:23:35.002Z,14.82
2022-10-14T20:26:03.139Z,14.77
2022-10-14T20:28:29.645Z,14.77
2022-10-14T20:30:57.328Z,14.77
2022-10-14T20:33:24.292Z,14.79
2022-10-14T20:36:11.376Z,14.76
2022-10-14T20:38:39.078Z,14.74
2022-10-14T20:41:20.877Z,14.70
2022-10-14T20:43:47.618Z,14.69
2022-10-14T20:46:14.413Z,14.70
2022-10-14T20:48:41.116Z,14.68
2022-10-14T20:51:12.719Z,14.66
2022-10-14T20:56:12.773Z,14.66
2022-10-14T20:58:39.547Z,14.64
2022-10-14T21:01:09.305Z,14.60
2022-10-14T21:03:36.186Z,14.60
2022-10-14T21:06:11.486Z,14.61
2022-10-14T21:08:38.323Z,14.60
2022-10-14T21:11:09.233Z,14.58
2022-10-14T21:13:38.505Z,14.57
2022-10-14T21:16:26.092Z,14.56
2022-10-14T21:19:04.815Z,14.52
2022-10-14T21:21:36.854Z,14.50
2022-10-14T21:24:03.459Z,14.48
2022-10-14T21:26:30.297Z,14.46
2022-10-14T21:28:56.903Z,14.44
2022-10-14T21:31:26.145Z,14.44
2022-10-14T21:34:04.190Z,14.42
2022-10-14T21:36:32.116Z,14.41
2022-10-14T21:39:00.663Z,14.40
2022-10-14T21:41:28.042Z,14.38
2022-10-14T21:43:58.721Z,14.38
2022-10-14T21:46:26.210Z,14.39
2022-10-14T21:48:57.214Z,14.39
2022-10-14T21:51:25.553Z,14.39
2022-10-14T21:53:51.916Z,14.38
2022-10-14T21:56:18.512Z,14.38
2022-10-14T21:58:44.917Z,14.37
2022-10-14T22:01:13.036Z,14.38
2022-10-14T22:03:40.430Z,14.37
2022-10-14T22:06:09.751Z,14.36
2022-10-14T22:08:47.221Z,14.36
2022-10-14T22:11:25.331Z,14.35
2022-10-14T22:13:52.630Z,14.33
2022-10-14T22:16:21.936Z,14.30
2022-10-14T22:18:50.686Z,14.26
2022-10-14T22:21:19.781Z,14.27
2022-10-14T22:23:48.082Z,14.24
2022-10-14T22:26:20.202Z,14.23
2022-10-14T22:28:46.866Z,14.22
2022-10-14T22:31:15.433Z,14.20
2022-10-14T22:33:42.481Z,14.19
2022-10-14T22:36:29.460Z,14.18
2022-10-14T22:38:57.437Z,14.13
2022-10-14T22:41:25.443Z,14.10
2022-10-14T22:43:54.798Z,14.07
2022-10-14T22:46:23.541Z,14.07
2022-10-14T22:48:51.588Z,14.04
2022-10-14T22:51:19.878Z,14.03
2022-10-14T22:53:46.847Z,14.00
2022-10-14T22:56:18.865Z,14.01
2022-10-14T22:58:45.190Z,14.00
2022-10-14T23:01:14.952Z,13.97
2022-10-14T23:03:44.256Z,13.96
2022-10-14T23:06:13.309Z,13.95
2022-10-14T23:08:40.549Z,13.92
2022-10-14T23:11:07.710Z,13.89
2022-10-14T23:13:34.469Z,13.86
2022-10-14T23:16:02.205Z,13.83
2022-10-14T23:18:31.691Z,13.78
2022-10-14T23:20:58.282Z,13.78
2022-10-14T23:23:24.691Z,13.76
2022-10-14T23:25:51.089Z,13.73
2022-10-14T23:28:19.410Z,13.67
2022-10-14T23:30:45.763Z,13.76
2022-10-14T23:33:12.527Z,13.77
2022-10-14T23:35:38.991Z,13.78
2022-10-14T23:38:05.585Z,13.80
2022-10-14T23:40:31.930Z,13.78
2022-10-14T23:42:58.347Z,13.78
2022-10-14T23:45:24.779Z,13.74
2022-10-14T23:47:53.013Z,13.69
2022-10-14T23:50:19.418Z,13.69
2022-10-14T23:52:45.923Z,13.65
2022-10-14T23:55:13.304Z,13.61
2022-10-14T23:57:40.302Z,13.59
